createdAt,value
2023-02-28T00:00:54.920Z,39.27
2023-02-28T00:03:21.320Z,39.25
2023-02-28T00:05:47.835Z,39.27
2023-02-28T00:08:14.484Z,39.34
2023-02-28T00:10:40.867Z,38.88
2023-02-28T00:13:07.787Z,39.51
2023-02-28T00:15:35.261Z,38.93
2023-02-28T00:18:03.212Z,39.51
2023-02-28T00:20:30.494Z,39.67
2023-02-28T00:22:57.266Z,39.29
2023-02-28T00:25:26.469Z,39.70
2023-02-28T00:27:53.668Z,39.64
2023-02-28T00:30:22.702Z,39.61
2023-02-28T00:32:49.725Z,39.52
2023-02-28T00:35:16.428Z,39.61
2023-02-28T00:37:43.654Z,39.41
2023-02-28T00:40:12.238Z,39.60
2023-02-28T00:42:39.073Z,39.55
2023-02-28T00:45:06.337Z,39.78
2023-02-28T00:47:33.388Z,39.67
2023-02-28T00:50:00.298Z,39.78
2023-02-28T00:52:26.862Z,39.89
2023-02-28T00:54:53.210Z,39.69
2023-02-28T00:57:19.757Z,40.15
2023-02-28T00:59:46.202Z,40.04
2023-02-28T01:02:12.586Z,40.03
2023-02-28T01:04:40.172Z,40.25
2023-02-28T01:07:06.828Z,39.93
2023-02-28T01:09:33.513Z,40.21
2023-02-28T01:12:00.346Z,39.96
2023-02-28T01:14:26.935Z,40.28
2023-02-28T01:16:53.379Z,40.09
2023-02-28T01:19:20.308Z,40.12
2023-02-28T01:21:46.933Z,40.56
2023-02-28T01:24:13.336Z,40.59
2023-02-28T01:26:40.211Z,40.24
2023-02-28T01:29:06.579Z,40.77
2023-02-28T01:31:33.279Z,40.58
2023-02-28T01:34:00.128Z,40.96
2023-02-28T01:36:27.078Z,40.68
2023-02-28T01:38:53.583Z,40.49
2023-02-28T01:41:25.735Z,40.79
2023-02-28T01:44:05.422Z,41.62
2023-02-28T01:46:34.065Z,40.95
2023-02-28T01:49:09.916Z,41.23
2023-02-28T01:51:52.346Z,41.76
2023-02-28T01:54:29.437Z,41.60
2023-02-28T01:57:07.010Z,41.55
2023-02-28T01:59:52.089Z,41.55
2023-02-28T02:02:23.031Z,41.34
2023-02-28T02:05:02.869Z,41.60
2023-02-28T02:07:34.223Z,41.64
2023-02-28T02:10:04.635Z,41.28
2023-02-28T02:13:04.537Z,41.57
2023-02-28T02:15:53.957Z,41.77
2023-02-28T02:18:23.253Z,41.43
2023-02-28T02:21:11.804Z,41.97
2023-02-28T02:24:03.634Z,42.17
2023-02-28T02:27:21.784Z,42.32
2023-02-28T02:30:21.488Z,42.24
2023-02-28T02:32:47.790Z,41.48
2023-02-28T02:35:27.071Z,41.65
2023-02-28T02:38:10.336Z,42.27
2023-02-28T02:40:48.086Z,41.64
2023-02-28T02:43:20.677Z,41.84
2023-02-28T02:45:53.079Z,41.74
2023-02-28T02:48:22.585Z,41.22
2023-02-28T02:50:58.952Z,41.66
2023-02-28T02:53:33.354Z,41.74
2023-02-28T02:56:02.356Z,41.68
2023-02-28T02:58:35.207Z,41.95
2023-02-28T03:01:04.519Z,42.03
2023-02-28T03:03:33.619Z,41.60
2023-02-28T03:06:01.915Z,41.59
2023-02-28T03:08:30.699Z,42.27
2023-02-28T03:11:00.753Z,41.87
2023-02-28T03:13:53.088Z,42.11
2023-02-28T03:16:39.813Z,42.49
2023-02-28T03:19:29.446Z,42.65
2023-02-28T03:22:27.731Z,42.41
2023-02-28T03:25:30.158Z,42.20
2023-02-28T03:28:05.506Z,42.32
2023-02-28T03:30:55.496Z,42.59
2023-02-28T03:33:33.060Z,42.27
2023-02-28T03:36:21.428Z,42.69
2023-02-28T03:39:06.363Z,42.53
2023-02-28T03:41:39.788Z,41.76
2023-02-28T03:44:17.155Z,42.21
2023-02-28T03:46:51.870Z,42.31
2023-02-28T03:49:23.314Z,42.20
2023-02-28T03:51:52.039Z,41.91
2023-02-28T03:54:29.814Z,42.60
2023-02-28T03:57:03.190Z,42.95
2023-02-28T03:59:35.669Z,42.32
2023-02-28T04:02:02.498Z,42.36
2023-02-28T04:04:29.447Z,42.00
2023-02-28T04:07:05.051Z,42.33
2023-02-28T04:09:33.157Z,42.36
2023-02-28T04:11:59.746Z,42.32
2023-02-28T04:14:26.711Z,42.31
2023-02-28T04:16:53.607Z,42.37
2023-02-28T04:19:22.242Z,42.39
2023-02-28T04:21:54.206Z,42.61
2023-02-28T04:24:23.098Z,42.04
2023-02-28T04:26:52.251Z,42.47
2023-02-28T04:29:22.323Z,42.45
2023-02-28T04:31:49.205Z,42.67
2023-02-28T04:34:16.100Z,42.63
2023-02-28T04:36:42.491Z,42.32
2023-02-28T04:39:10.655Z,42.59
2023-02-28T04:41:37.331Z,42.44
2023-02-28T04:44:05.145Z,42.80
2023-02-28T04:46:31.718Z,42.56
2023-02-28T04:48:58.198Z,42.52
2023-02-28T04:51:24.605Z,42.36
2023-02-28T04:53:51.199Z,42.47
2023-02-28T04:56:19.208Z,42.33
2023-02-28T04:58:45.991Z,42.03
2023-02-28T05:01:37.450Z,42.93
2023-02-28T05:04:05.799Z,42.35
2023-02-28T05:06:33.382Z,42.74
2023-02-28T05:09:01.926Z,42.28
2023-02-28T05:11:37.162Z,42.17
2023-02-28T05:14:05.741Z,42.44
2023-02-28T05:16:35.706Z,42.26
2023-02-28T05:19:02.194Z,42.22
2023-02-28T05:21:34.162Z,42.05
2023-02-28T05:24:03.210Z,42.10
2023-02-28T05:26:30.556Z,42.07
2023-02-28T05:28:59.896Z,42.38
2023-02-28T05:31:29.906Z,42.19
2023-02-28T05:33:58.664Z,42.28
2023-02-28T05:36:25.382Z,42.21
2023-02-28T05:38:52.625Z,42.30
2023-02-28T05:41:20.866Z,41.95
2023-02-28T05:43:47.810Z,42.69
2023-02-28T05:46:16.263Z,42.12
2023-02-28T05:48:43.996Z,42.31
2023-02-28T05:51:11.737Z,42.00
2023-02-28T05:53:41.956Z,42.38
2023-02-28T05:56:08.281Z,42.09
2023-02-28T05:58:35.570Z,41.99
2023-02-28T06:01:24.712Z,42.85
2023-02-28T06:03:51.755Z,42.21
2023-02-28T06:06:18.217Z,42.38
2023-02-28T06:08:45.610Z,42.50
2023-02-28T06:11:12.118Z,42.39
2023-02-28T06:13:38.492Z,42.21
2023-02-28T06:16:05.302Z,42.37
2023-02-28T06:18:32.011Z,42.30
2023-02-28T06:20:58.525Z,42.50
2023-02-28T06:23:24.883Z,42.27
2023-02-28T06:25:51.577Z,42.42
2023-02-28T06:28:18.170Z,42.40
2023-02-28T06:30:46.428Z,42.46
2023-02-28T06:33:13.086Z,42.51
2023-02-28T06:35:39.416Z,42.66
2023-02-28T06:38:05.777Z,42.79
2023-02-28T06:40:35.116Z,42.47
2023-02-28T06:43:01.725Z,42.61
2023-02-28T06:45:28.321Z,42.70
2023-02-28T06:47:55.015Z,42.66
2023-02-28T06:50:21.474Z,42.48
2023-02-28T06:52:48.313Z,42.40
2023-02-28T06:55:15.014Z,42.35
2023-02-28T06:57:41.415Z,42.76
2023-02-28T07:00:10.550Z,42.67
2023-02-28T07:02:38.660Z,42.83
2023-02-28T07:05:06.820Z,42.79
2023-02-28T07:07:33.401Z,42.75
2023-02-28T07:09:59.959Z,42.82
2023-02-28T07:12:26.337Z,42.74
2023-02-28T07:14:52.821Z,42.94
2023-02-28T07:17:19.198Z,42.72
2023-02-28T07:19:45.600Z,42.70
2023-02-28T07:22:12.659Z,42.76
2023-02-28T07:24:40.110Z,43.01
2023-02-28T07:27:07.345Z,43.21
2023-02-28T07:29:33.709Z,43.16
2023-02-28T07:32:00.086Z,43.32
2023-02-28T07:34:27.119Z,42.96
2023-02-28T07:36:54.757Z,43.30
2023-02-28T07:39:22.640Z,43.33
2023-02-28T07:41:49.040Z,43.14
2023-02-28T07:44:15.684Z,42.84
2023-02-28T07:46:42.036Z,43.04
2023-02-28T07:49:08.511Z,43.06
2023-02-28T07:51:35.023Z,42.71
2023-02-28T07:54:01.497Z,42.79
2023-02-28T07:56:28.402Z,42.53
2023-02-28T07:58:55.116Z,42.90
2023-02-28T08:01:21.830Z,42.77
2023-02-28T08:03:48.615Z,42.77
2023-02-28T08:06:21.126Z,42.76
2023-02-28T08:08:48.009Z,42.33
2023-02-28T08:11:15.358Z,42.16
2023-02-28T08:13:43.537Z,42.15
2023-02-28T08:16:10.649Z,42.06
2023-02-28T08:18:37.281Z,41.35
2023-02-28T08:21:08.400Z,41.44
2023-02-28T08:23:34.768Z,41.40
2023-02-28T08:26:01.130Z,41.19
2023-02-28T08:28:27.752Z,41.15
2023-02-28T08:30:54.838Z,41.11
2023-02-28T08:33:21.726Z,41.13
2023-02-28T08:35:48.317Z,40.73
2023-02-28T08:38:14.626Z,40.88
2023-02-28T08:40:41.564Z,41.17
2023-02-28T08:43:07.938Z,40.70
2023-02-28T08:45:34.434Z,41.28
2023-02-28T08:48:00.796Z,40.66
2023-02-28T08:50:27.729Z,40.79
2023-02-28T08:52:54.218Z,40.69
2023-02-28T08:55:21.983Z,40.65
2023-02-28T08:57:48.402Z,40.30
2023-02-28T09:00:15.396Z,40.06
2023-02-28T09:02:43.617Z,39.82
2023-02-28T09:05:11.292Z,40.00
2023-02-28T09:07:37.672Z,39.24
2023-02-28T09:10:04.636Z,39.39
2023-02-28T09:12:35.432Z,38.85
2023-02-28T09:15:02.439Z,39.28
2023-02-28T09:17:30.621Z,39.12
2023-02-28T09:19:58.051Z,38.58
2023-02-28T09:22:24.838Z,38.77
2023-02-28T09:24:51.252Z,38.23
2023-02-28T09:27:18.124Z,38.58
2023-02-28T09:29:44.551Z,38.44
2023-02-28T09:32:11.072Z,38.20
2023-02-28T09:34:38.307Z,37.85
2023-02-28T09:37:04.794Z,38.10
2023-02-28T09:39:31.906Z,38.10
2023-02-28T09:41:58.739Z,37.86
2023-02-28T09:44:37.482Z,36.81
2023-02-28T09:47:28.628Z,37.56
2023-02-28T09:49:59.645Z,37.30
2023-02-28T09:52:31.379Z,37.22
2023-02-28T09:55:19.087Z,36.62
2023-02-28T09:57:46.807Z,37.66
2023-02-28T10:00:26.016Z,36.98
2023-02-28T10:03:26.436Z,36.29
2023-02-28T10:06:05.519Z,36.29
2023-02-28T10:08:48.004Z,36.24
2023-02-28T10:11:18.041Z,36.04
2023-02-28T10:14:04.777Z,35.33
2023-02-28T10:16:47.293Z,35.04
2023-02-28T10:19:27.258Z,34.50
2023-02-28T10:22:03.311Z,34.40
2023-02-28T10:24:54.706Z,34.10
2023-02-28T10:27:23.610Z,35.34
2023-02-28T10:30:01.654Z,34.30
2023-02-28T10:32:31.917Z,34.71
2023-02-28T10:35:00.770Z,34.82
2023-02-28T10:37:29.556Z,35.04
2023-02-28T10:39:56.674Z,35.09
2023-02-28T10:42:28.925Z,34.30
2023-02-28T10:45:16.369Z,33.84
2023-02-28T10:47:56.896Z,34.01
2023-02-28T10:50:32.307Z,33.09
2023-02-28T10:53:15.727Z,30.36
2023-02-28T10:55:42.532Z,33.70
2023-02-28T10:58:29.834Z,32.10
2023-02-28T11:00:56.789Z,33.24
2023-02-28T11:03:31.985Z,32.68
2023-02-28T11:05:59.328Z,32.94
2023-02-28T11:08:26.242Z,32.78
2023-02-28T11:10:58.811Z,32.30
2023-02-28T11:13:34.724Z,32.70
2023-02-28T11:16:06.371Z,32.63
2023-02-28T11:18:54.751Z,33.81
2023-02-28T11:21:27.093Z,31.36
2023-02-28T11:24:02.248Z,31.92
2023-02-28T11:26:47.310Z,30.41
2023-02-28T11:29:18.407Z,32.15
2023-02-28T11:31:45.010Z,33.23
2023-02-28T11:34:26.370Z,32.31
2023-02-28T11:36:55.539Z,33.40
2023-02-28T11:39:22.146Z,33.87
2023-02-28T11:41:58.693Z,32.29
2023-02-28T11:44:47.324Z,32.21
2023-02-28T11:47:22.368Z,32.88
2023-02-28T11:49:58.326Z,32.70
2023-02-28T11:52:54.898Z,32.46
2023-02-28T11:55:38.923Z,31.10
2023-02-28T11:58:25.096Z,33.06
2023-02-28T12:01:28.889Z,31.94
2023-02-28T12:04:26.987Z,32.15
2023-02-28T12:07:01.127Z,32.25
2023-02-28T12:09:45.010Z,32.20
2023-02-28T12:12:35.612Z,32.77
2023-02-28T12:15:23.329Z,32.92
2023-02-28T12:18:23.144Z,32.02
2023-02-28T12:21:02.998Z,32.31
2023-02-28T12:24:06.911Z,32.40
2023-02-28T12:26:40.907Z,32.64
2023-02-28T12:29:18.081Z,31.94
2023-02-28T12:31:54.159Z,32.00
2023-02-28T12:34:26.282Z,33.19
2023-02-28T12:36:57.204Z,32.79
2023-02-28T12:39:49.476Z,32.65
2023-02-28T12:42:30.375Z,32.25
2023-02-28T12:45:03.546Z,32.06
2023-02-28T12:47:31.243Z,32.95
2023-02-28T12:50:12.175Z,32.89
2023-02-28T12:53:01.665Z,31.05
2023-02-28T12:55:51.315Z,32.01
2023-02-28T12:58:38.834Z,32.63
2023-02-28T13:01:34.724Z,32.94
2023-02-28T13:04:01.314Z,32.87
2023-02-28T13:06:46.552Z,32.97
2023-02-28T13:09:16.537Z,33.04
2023-02-28T13:11:54.205Z,32.78
2023-02-28T13:14:25.109Z,32.83
2023-02-28T13:16:59.192Z,32.55
2023-02-28T13:19:28.431Z,32.81
2023-02-28T13:21:56.162Z,32.97
2023-02-28T13:24:41.032Z,33.28
2023-02-28T13:27:09.471Z,32.73
2023-02-28T13:29:42.968Z,32.32
2023-02-28T13:32:09.825Z,33.05
2023-02-28T13:34:38.940Z,32.71
2023-02-28T13:37:24.014Z,32.04
2023-02-28T13:39:54.222Z,32.54
2023-02-28T13:42:27.414Z,32.37
2023-02-28T13:45:02.836Z,32.06
2023-02-28T13:47:33.043Z,32.53
2023-02-28T13:50:27.391Z,31.94
2023-02-28T13:53:16.716Z,31.97
2023-02-28T13:56:11.306Z,31.92
2023-02-28T13:59:03.157Z,31.72
2023-02-28T14:02:01.470Z,31.55
2023-02-28T14:04:47.368Z,31.85
2023-02-28T14:07:24.904Z,31.24
2023-02-28T14:10:21.428Z,31.15
2023-02-28T14:13:12.026Z,31.22
2023-02-28T14:15:44.632Z,31.95
2023-02-28T14:18:18.937Z,32.12
2023-02-28T14:20:48.695Z,31.77
2023-02-28T14:23:31.570Z,30.64
2023-02-28T14:26:22.815Z,30.59
2023-02-28T14:29:16.119Z,30.54
2023-02-28T14:31:49.659Z,31.71
2023-02-28T14:34:43.928Z,31.66
2023-02-28T14:37:20.358Z,32.00
2023-02-28T14:39:47.767Z,32.54
2023-02-28T14:42:35.629Z,31.75
2023-02-28T14:45:03.972Z,32.25
2023-02-28T14:47:36.482Z,32.20
2023-02-28T14:50:05.196Z,32.20
2023-02-28T14:52:34.299Z,31.90
2023-02-28T14:55:05.043Z,32.41
2023-02-28T14:57:40.210Z,31.74
2023-02-28T15:00:22.557Z,31.86
2023-02-28T15:02:49.097Z,32.34
2023-02-28T15:05:18.702Z,32.52
2023-02-28T15:07:47.382Z,31.80
2023-02-28T15:10:26.408Z,31.00
2023-02-28T15:13:02.423Z,31.27
2023-02-28T15:16:05.072Z,31.49
2023-02-28T15:18:34.100Z,32.13
2023-02-28T15:21:07.425Z,32.00
2023-02-28T15:23:36.991Z,32.42
2023-02-28T15:26:03.918Z,32.44
2023-02-28T15:28:30.944Z,32.21
2023-02-28T15:31:01.730Z,31.84
2023-02-28T15:33:33.855Z,32.27
2023-02-28T15:36:18.524Z,31.93
2023-02-28T15:38:44.986Z,32.33
2023-02-28T15:41:38.991Z,31.90
2023-02-28T15:44:22.509Z,31.75
2023-02-28T15:47:00.141Z,31.46
2023-02-28T15:49:27.163Z,31.82
2023-02-28T15:51:56.579Z,32.09
2023-02-28T15:54:31.452Z,31.46
2023-02-28T15:57:02.704Z,32.27
2023-02-28T15:59:31.540Z,32.20
2023-02-28T16:02:12.926Z,31.48
2023-02-28T16:04:57.530Z,31.47
2023-02-28T16:07:25.110Z,32.42
2023-02-28T16:09:55.440Z,32.75
2023-02-28T16:12:26.877Z,32.21
2023-02-28T16:14:55.332Z,32.27
2023-02-28T16:17:23.721Z,32.64
2023-02-28T16:19:50.221Z,32.24
2023-02-28T16:22:16.886Z,32.30
2023-02-28T16:24:43.541Z,32.80
2023-02-28T16:27:31.731Z,32.41
2023-02-28T16:29:58.282Z,32.34
2023-02-28T16:32:24.753Z,32.57
2023-02-28T16:34:51.701Z,32.28
2023-02-28T16:37:19.419Z,32.09
2023-02-28T16:39:46.780Z,32.59
2023-02-28T16:42:28.157Z,32.36
2023-02-28T16:44:56.231Z,32.77
2023-02-28T16:47:23.258Z,32.96
2023-02-28T16:49:49.814Z,32.41
2023-02-28T16:52:16.411Z,32.99
2023-02-28T16:54:43.140Z,33.12
2023-02-28T16:57:21.931Z,32.54
2023-02-28T16:59:51.627Z,33.04
2023-02-28T17:02:20.314Z,32.94
2023-02-28T17:04:47.541Z,32.87
2023-02-28T17:07:16.970Z,33.26
2023-02-28T17:09:45.740Z,32.80
2023-02-28T17:12:13.073Z,33.24
2023-02-28T17:14:39.509Z,33.06
2023-02-28T17:17:07.065Z,33.35
2023-02-28T17:19:35.208Z,32.88
2023-02-28T17:22:01.641Z,33.05
2023-02-28T17:24:31.229Z,33.10
2023-02-28T17:26:58.036Z,33.05
2023-02-28T17:29:25.315Z,33.10
2023-02-28T17:31:53.135Z,33.73
2023-02-28T17:34:20.499Z,34.03
2023-02-28T17:36:48.311Z,33.33
2023-02-28T17:39:16.523Z,33.46
2023-02-28T17:41:43.062Z,33.31
2023-02-28T17:44:10.017Z,33.51
2023-02-28T17:46:37.250Z,33.82
2023-02-28T17:49:04.266Z,33.80
2023-02-28T17:51:30.975Z,33.91
2023-02-28T17:53:57.363Z,34.16
2023-02-28T17:56:26.274Z,34.43
2023-02-28T17:58:54.856Z,33.81
2023-02-28T18:01:22.847Z,34.35
2023-02-28T18:03:49.445Z,34.09
2023-02-28T18:06:33.958Z,33.95
2023-02-28T18:09:00.563Z,34.63
2023-02-28T18:11:41.896Z,34.09
2023-02-28T18:14:09.038Z,34.31
2023-02-28T18:16:35.459Z,34.75
2023-02-28T18:19:04.525Z,34.66
2023-02-28T18:21:31.683Z,34.52
2023-02-28T18:23:58.452Z,34.54
2023-02-28T18:26:24.830Z,34.40
2023-02-28T18:28:51.212Z,34.97
2023-02-28T18:31:20.353Z,34.15
2023-02-28T18:33:51.427Z,34.70
2023-02-28T18:36:19.081Z,34.73
2023-02-28T18:38:45.964Z,34.98
2023-02-28T18:41:12.976Z,35.16
2023-02-28T18:43:39.513Z,34.98
2023-02-28T18:46:09.774Z,34.56
2023-02-28T18:48:36.741Z,34.70
2023-02-28T18:51:11.058Z,34.71
2023-02-28T18:53:42.658Z,34.95
2023-02-28T18:56:13.198Z,34.89
2023-02-28T18:58:40.266Z,35.04
2023-02-28T19:01:21.398Z,35.35
2023-02-28T19:03:49.874Z,34.66
2023-02-28T19:06:18.237Z,35.35
2023-02-28T19:08:44.673Z,35.29
2023-02-28T19:11:13.278Z,35.04
2023-02-28T19:13:39.953Z,34.46
2023-02-28T19:16:08.499Z,34.84
2023-02-28T19:18:35.685Z,35.37
2023-02-28T19:21:02.281Z,35.33
2023-02-28T19:23:29.218Z,35.34
2023-02-28T19:25:57.512Z,35.37
2023-02-28T19:28:24.246Z,35.65
2023-02-28T19:30:53.091Z,35.22
2023-02-28T19:33:20.758Z,35.11
2023-02-28T19:35:49.138Z,35.54
2023-02-28T19:38:15.906Z,35.83
2023-02-28T19:40:42.241Z,35.59
2023-02-28T19:43:09.513Z,35.29
2023-02-28T19:45:37.908Z,35.46
2023-02-28T19:48:04.389Z,36.01
2023-02-28T19:50:31.699Z,35.88
2023-02-28T19:52:59.995Z,35.38
2023-02-28T19:55:27.270Z,35.50
2023-02-28T19:57:53.661Z,35.88
2023-02-28T20:00:20.141Z,35.54
2023-02-28T20:02:46.577Z,36.27
2023-02-28T20:05:13.172Z,35.80
2023-02-28T20:07:39.539Z,36.30
2023-02-28T20:10:06.399Z,36.32
2023-02-28T20:12:32.938Z,36.09
2023-02-28T20:14:59.822Z,36.44
2023-02-28T20:17:26.253Z,36.34
2023-02-28T20:19:54.251Z,36.14
2023-02-28T20:22:20.898Z,36.69
2023-02-28T20:24:48.433Z,36.35
2023-02-28T20:27:15.605Z,36.28
2023-02-28T20:29:41.993Z,36.18
2023-02-28T20:32:08.523Z,36.39
2023-02-28T20:34:34.934Z,36.35
2023-02-28T20:37:01.511Z,36.54
2023-02-28T20:39:29.060Z,36.85
2023-02-28T20:41:55.462Z,36.84
2023-02-28T20:44:21.936Z,36.63
2023-02-28T20:46:48.389Z,36.53
2023-02-28T20:49:15.722Z,36.71
2023-02-28T20:51:42.264Z,36.66
2023-02-28T20:54:11.137Z,36.67
2023-02-28T20:56:38.302Z,36.70
2023-02-28T20:59:05.374Z,37.10
2023-02-28T21:01:32.662Z,37.02
2023-02-28T21:04:03.037Z,37.06
2023-02-28T21:06:33.045Z,37.02
2023-02-28T21:09:00.993Z,37.09
2023-02-28T21:11:30.124Z,37.24
2023-02-28T21:13:59.568Z,37.50
2023-02-28T21:16:27.056Z,37.42
2023-02-28T21:18:55.184Z,37.30
2023-02-28T21:21:24.438Z,37.78
2023-02-28T21:23:52.636Z,37.76
2023-02-28T21:26:21.410Z,37.67
2023-02-28T21:29:02.261Z,38.03
2023-02-28T21:31:31.994Z,38.04
2023-02-28T21:34:00.301Z,38.26
2023-02-28T21:36:32.815Z,38.00
2023-02-28T21:39:08.102Z,37.77
2023-02-28T21:41:36.181Z,37.95
2023-02-28T21:44:02.566Z,38.07
2023-02-28T21:46:30.495Z,38.25
2023-02-28T21:48:58.459Z,38.02
2023-02-28T21:51:33.762Z,38.47
2023-02-28T21:54:00.618Z,38.57
2023-02-28T21:56:30.386Z,38.62
2023-02-28T21:59:00.298Z,38.55
2023-02-28T22:01:32.548Z,39.00
2023-02-28T22:03:59.712Z,38.68
2023-02-28T22:06:29.045Z,38.38
2023-02-28T22:08:57.490Z,38.56
2023-02-28T22:11:25.921Z,38.53
2023-02-28T22:13:53.483Z,38.97
2023-02-28T22:16:21.001Z,38.45
2023-02-28T22:18:47.757Z,38.69
2023-02-28T22:21:15.980Z,38.97
2023-02-28T22:23:42.794Z,38.85
2023-02-28T22:26:12.813Z,39.00
2023-02-28T22:28:39.541Z,39.06
2023-02-28T22:31:17.692Z,39.60
2023-02-28T22:33:45.354Z,39.00
2023-02-28T22:36:15.876Z,39.12
2023-02-28T22:38:43.568Z,39.01
2023-02-28T22:41:11.785Z,38.93
2023-02-28T22:43:41.719Z,39.17
2023-02-28T22:46:10.076Z,39.50
2023-02-28T22:48:36.476Z,39.85
2023-02-28T22:51:05.240Z,38.97
2023-02-28T22:53:33.532Z,39.43
2023-02-28T22:56:00.588Z,39.94
2023-02-28T22:58:27.801Z,38.85
2023-02-28T23:00:58.047Z,39.43
2023-02-28T23:03:25.897Z,39.22
2023-02-28T23:05:53.138Z,39.42
2023-02-28T23:08:23.497Z,39.66
2023-02-28T23:10:52.280Z,39.39
2023-02-28T23:13:19.992Z,39.28
2023-02-28T23:15:48.277Z,39.87
2023-02-28T23:18:16.826Z,39.42
2023-02-28T23:20:44.013Z,39.38
2023-02-28T23:23:10.755Z,39.60
2023-02-28T23:25:41.669Z,39.70
2023-02-28T23:28:10.171Z,39.45
2023-02-28T23:30:42.737Z,40.49
2023-02-28T23:33:09.080Z,40.08
2023-02-28T23:35:35.457Z,39.92
2023-02-28T23:38:01.925Z,40.08
2023-02-28T23:40:28.274Z,39.85
2023-02-28T23:42:54.644Z,40.09
2023-02-28T23:45:23.699Z,39.88
2023-02-28T23:47:51.135Z,39.78
2023-02-28T23:50:17.596Z,39.85
2023-02-28T23:52:43.958Z,39.59
2023-02-28T23:55:10.898Z,40.04
2023-02-28T23:57:39.066Z,39.96
